createdAt,value
2019-01-04T00:00:57.851Z,103648.92
2019-01-04T00:03:28.593Z,103646.52
2019-01-04T00:05:59.178Z,103646.92
2019-01-04T00:08:31.953Z,103638.42
2019-01-04T00:11:03.695Z,103645.72
2019-01-04T00:13:35.220Z,103640.74
2019-01-04T00:16:07.662Z,103639.23
2019-01-04T00:18:38.137Z,103628.88
2019-01-04T00:21:09.225Z,103638.59
2019-01-04T00:23:40.616Z,103642.19
2019-01-04T00:26:11.277Z,103639.14
2019-01-04T00:28:43.472Z,103647.53
2019-01-04T00:31:16.759Z,103639.79
2019-01-04T00:33:49.723Z,103638.19
2019-01-04T00:36:23.015Z,103639.69
2019-01-04T00:38:57.870Z,103649.23
2019-01-04T00:41:27.343Z,103651.69
2019-01-04T00:43:59.615Z,103646.59
2019-01-04T00:46:32.810Z,103648.56
2019-01-04T00:49:03.381Z,103644.77
2019-01-04T00:51:34.862Z,103645.67
2019-01-04T00:54:16.626Z,103644.16
2019-01-04T00:57:03.478Z,103638.62
2019-01-04T01:00:15.555Z,103646.28
2019-01-04T01:03:48.348Z,103635.88
2019-01-04T01:06:54.439Z,103634.88
2019-01-04T01:10:11.921Z,103644.45
2019-01-04T01:13:31.037Z,103642.11
2019-01-04T01:16:32.034Z,103633.18
2019-01-04T01:20:02.212Z,103638.93
2019-01-04T01:23:31.522Z,103644.25
2019-01-04T01:26:35.352Z,103644.85
2019-01-04T01:29:41.310Z,103649.55
2019-01-04T01:32:48.997Z,103642.65
2019-01-04T01:36:08.752Z,103641.94
2019-01-04T01:39:20.530Z,103650.73
2019-01-04T01:42:22.346Z,103659.38
2019-01-04T01:45:45.774Z,103661.37
2019-01-04T01:48:25.850Z,103668.57
2019-01-04T01:51:30.350Z,103654.78
2019-01-04T01:54:01.030Z,103654.78
2019-01-04T01:56:32.900Z,103655.14
2019-01-04T01:59:03.282Z,103667.03
2019-01-04T02:01:33.681Z,103666.05
2019-01-04T02:04:04.314Z,103668.60
2019-01-04T02:06:34.635Z,103669.18
2019-01-04T02:09:07.893Z,103680.50
2019-01-04T02:11:38.209Z,103684.65
2019-01-04T02:14:08.548Z,103676.45
2019-01-04T02:16:38.881Z,103669.14
2019-01-04T02:19:09.664Z,103670.44
2019-01-04T02:21:39.988Z,103666.06
2019-01-04T02:24:10.366Z,103671.08
2019-01-04T02:26:40.725Z,103671.08
2019-01-04T02:29:11.664Z,103663.86
2019-01-04T02:31:42.181Z,103659.53
2019-01-04T02:34:13.204Z,103650.37
2019-01-04T02:36:43.621Z,103653.93
2019-01-04T02:39:13.986Z,103645.25
2019-01-04T02:41:44.688Z,103645.89
2019-01-04T02:44:16.314Z,103649.41
2019-01-04T02:46:46.639Z,103664.14
2019-01-04T02:49:18.061Z,103659.14
2019-01-04T02:51:48.706Z,103658.29
2019-01-04T02:54:20.732Z,103653.85
2019-01-04T02:56:50.979Z,103651.17
2019-01-04T02:59:22.601Z,103661.16
2019-01-04T03:01:52.949Z,103661.47
2019-01-04T03:04:23.393Z,103664.49
2019-01-04T03:06:54.006Z,103667.89
2019-01-04T03:09:24.627Z,103661.96
2019-01-04T03:11:56.792Z,103656.48
2019-01-04T03:14:28.291Z,103660.64
2019-01-04T03:16:58.821Z,103660.73
2019-01-04T03:19:29.312Z,103656.52
2019-01-04T03:21:59.969Z,103650.47
2019-01-04T03:24:30.249Z,103654.42
2019-01-04T03:27:00.877Z,103659.81
2019-01-04T03:29:31.171Z,103651.79
2019-01-04T03:32:01.788Z,103655.70
2019-01-04T03:34:32.397Z,103649.70
2019-01-04T03:37:02.953Z,103648.77
2019-01-04T03:39:33.505Z,103652.89
2019-01-04T03:42:05.295Z,103646.74
2019-01-04T03:44:35.962Z,103639.08
2019-01-04T03:47:08.073Z,103632.59
2019-01-04T03:49:38.361Z,103631.70
2019-01-04T03:52:08.815Z,103630.64
2019-01-04T03:54:39.171Z,103629.05
2019-01-04T03:57:09.577Z,103625.25
2019-01-04T03:59:39.958Z,103619.86
2019-01-04T04:02:10.255Z,103613.89
2019-01-04T04:04:40.837Z,103611.72
2019-01-04T04:07:11.317Z,103613.17
2019-01-04T04:09:41.952Z,103615.84
2019-01-04T04:12:13.235Z,103619.47
2019-01-04T04:14:43.576Z,103618.89
2019-01-04T04:17:14.320Z,103608.51
2019-01-04T04:19:44.670Z,103604.49
2019-01-04T04:22:14.957Z,103595.63
2019-01-04T04:24:46.575Z,103590.16
2019-01-04T04:27:16.929Z,103590.16
2019-01-04T04:29:49.474Z,103600.91
2019-01-04T04:32:20.251Z,103600.91
2019-01-04T04:34:53.718Z,103603.98
2019-01-04T04:37:24.437Z,103608.32
2019-01-04T04:39:59.025Z,103610.09
2019-01-04T04:42:29.653Z,103602.50
2019-01-04T04:45:00.240Z,103601.77
2019-01-04T04:47:32.163Z,103604.62
2019-01-04T04:50:05.031Z,103604.62
2019-01-04T04:52:35.211Z,103614.18
2019-01-04T04:55:05.539Z,103609.80
2019-01-04T04:57:36.159Z,103607.80
2019-01-04T05:00:08.618Z,103607.80
2019-01-04T05:02:40.805Z,103608.53
2019-01-04T05:05:11.139Z,103608.53
2019-01-04T05:07:41.544Z,103607.62
2019-01-04T05:10:11.910Z,103607.44
2019-01-04T05:12:42.238Z,103605.41
2019-01-04T05:15:12.528Z,103603.10
2019-01-04T05:17:43.137Z,103587.72
2019-01-04T05:20:13.528Z,103585.05
2019-01-04T05:22:45.010Z,103595.22
2019-01-04T05:25:15.526Z,103597.75
2019-01-04T05:27:45.929Z,103595.03
2019-01-04T05:30:16.497Z,103605.45
2019-01-04T05:32:49.641Z,103599.98
2019-01-04T05:35:19.987Z,103596.51
2019-01-04T05:37:50.962Z,103591.22
2019-01-04T05:40:21.233Z,103592.84
2019-01-04T05:42:53.716Z,103586.33
2019-01-04T05:45:25.676Z,103587.23
2019-01-04T05:47:57.634Z,103597.37
2019-01-04T05:50:27.943Z,103597.88
2019-01-04T05:53:00.088Z,103600.05
2019-01-04T05:55:30.592Z,103592.63
2019-01-04T05:58:01.565Z,103578.69
2019-01-04T06:00:31.884Z,103583.53
2019-01-04T06:03:02.229Z,103580.78
2019-01-04T06:05:32.845Z,103575.13
2019-01-04T06:08:03.403Z,103574.03
2019-01-04T06:10:33.719Z,103574.03
2019-01-04T06:13:04.344Z,103563.58
2019-01-04T06:15:35.055Z,103570.64
2019-01-04T06:18:05.505Z,103573.17
2019-01-04T06:20:36.154Z,103577.20
2019-01-04T06:23:06.698Z,103574.30
2019-01-04T06:25:37.026Z,103586.57
2019-01-04T06:28:07.537Z,103577.52
2019-01-04T06:30:37.849Z,103571.86
2019-01-04T06:33:08.138Z,103560.60
2019-01-04T06:35:39.631Z,103554.27
2019-01-04T06:38:09.989Z,103562.95
2019-01-04T06:40:42.721Z,103565.63
2019-01-04T06:43:14.422Z,103559.61
2019-01-04T06:45:44.736Z,103543.58
2019-01-04T06:48:15.071Z,103563.14
2019-01-04T06:50:46.647Z,103573.81
2019-01-04T06:53:17.571Z,103570.52
2019-01-04T06:55:54.195Z,103581.52
2019-01-04T06:58:25.907Z,103579.56
2019-01-04T07:00:58.183Z,103587.53
2019-01-04T07:03:30.177Z,103581.92
2019-01-04T07:06:01.677Z,103589.16
2019-01-04T07:08:32.148Z,103592.28
2019-01-04T07:11:02.495Z,103594.59
2019-01-04T07:13:32.826Z,103591.56
2019-01-04T07:16:03.536Z,103584.31
2019-01-04T07:18:33.956Z,103584.14
2019-01-04T07:21:04.368Z,103585.95
2019-01-04T07:23:34.704Z,103591.92
2019-01-04T07:26:05.165Z,103595.86
2019-01-04T07:28:37.122Z,103592.06
2019-01-04T07:31:07.660Z,103583.37
2019-01-04T07:33:38.122Z,103592.55
2019-01-04T07:36:13.398Z,103585.09
2019-01-04T07:38:43.664Z,103591.06
2019-01-04T07:41:14.041Z,103590.48
2019-01-04T07:43:46.256Z,103600.62
2019-01-04T07:46:18.188Z,103602.06
2019-01-04T07:48:48.470Z,103597.67
2019-01-04T07:51:18.777Z,103598.03
2019-01-04T07:53:50.845Z,103597.67
2019-01-04T07:56:22.833Z,103597.67
2019-01-04T07:58:54.599Z,103596.81
2019-01-04T08:01:26.627Z,103592.19
2019-01-04T08:03:58.370Z,103588.02
2019-01-04T08:06:29.017Z,103594.54
2019-01-04T08:08:59.547Z,103592.99
2019-01-04T08:11:33.586Z,103595.39
2019-01-04T08:14:05.161Z,103606.70
2019-01-04T08:16:35.701Z,103598.59
2019-01-04T08:19:06.378Z,103600.42
2019-01-04T08:21:36.665Z,103600.81
2019-01-04T08:24:09.291Z,103603.85
2019-01-04T08:26:39.797Z,103600.58
2019-01-04T08:29:12.423Z,103594.77
2019-01-04T08:31:43.118Z,103593.39
2019-01-04T08:34:15.702Z,103597.06
2019-01-04T08:36:46.046Z,103602.00
2019-01-04T08:39:16.354Z,103593.84
2019-01-04T08:41:47.039Z,103590.77
2019-01-04T08:44:18.554Z,103591.31
2019-01-04T08:46:48.883Z,103589.50
2019-01-04T08:49:19.330Z,103588.04
2019-01-04T08:51:49.996Z,103590.94
2019-01-04T08:54:21.346Z,103593.62
2019-01-04T08:56:51.889Z,103588.48
2019-01-04T08:59:22.488Z,103584.47
2019-01-04T09:01:54.096Z,103581.96
2019-01-04T09:04:24.436Z,103573.91
2019-01-04T09:06:55.320Z,103571.07
2019-01-04T09:09:25.643Z,103565.38
2019-01-04T09:11:56.971Z,103569.42
2019-01-04T09:14:28.917Z,103554.69
2019-01-04T09:17:00.153Z,103564.65
2019-01-04T09:19:30.600Z,103563.15
2019-01-04T09:22:00.922Z,103565.02
2019-01-04T09:24:32.440Z,103566.67
2019-01-04T09:27:02.856Z,103567.41
2019-01-04T09:29:34.815Z,103564.43
2019-01-04T09:32:10.110Z,103562.09
2019-01-04T09:34:37.432Z,103554.04
2019-01-04T09:37:07.994Z,103554.04
2019-01-04T09:39:38.543Z,103562.26
2019-01-04T09:42:11.452Z,103565.09
2019-01-04T09:44:42.284Z,103559.42
2019-01-04T09:47:12.636Z,103545.15
2019-01-04T09:49:43.100Z,103529.84
2019-01-04T09:52:13.752Z,103534.45
2019-01-04T09:54:44.177Z,103528.94
2019-01-04T09:57:14.660Z,103526.03
2019-01-04T09:59:45.007Z,103531.34
2019-01-04T10:02:15.640Z,103531.15
2019-01-04T10:04:49.211Z,103528.46
2019-01-04T10:07:19.785Z,103529.10
2019-01-04T10:09:50.166Z,103515.17
2019-01-04T10:12:22.175Z,103515.23
2019-01-04T10:14:56.799Z,103499.81
2019-01-04T10:17:27.225Z,103507.01
2019-01-04T10:19:57.580Z,103498.69
2019-01-04T10:22:27.977Z,103496.19
2019-01-04T10:25:02.676Z,103494.37
2019-01-04T10:27:34.505Z,103494.95
2019-01-04T10:30:08.306Z,103491.61
2019-01-04T10:32:40.463Z,103497.09
2019-01-04T10:35:17.757Z,103485.75
2019-01-04T10:37:48.409Z,103475.09
2019-01-04T10:40:22.679Z,103473.00
2019-01-04T10:42:52.906Z,103472.36
2019-01-04T10:45:27.067Z,103468.20
2019-01-04T10:47:57.651Z,103462.77
2019-01-04T10:50:29.157Z,103462.16
2019-01-04T10:52:59.835Z,103459.02
2019-01-04T10:55:30.554Z,103453.87
2019-01-04T10:58:02.166Z,103453.63
2019-01-04T11:00:37.812Z,103453.78
2019-01-04T11:03:09.995Z,103455.51
2019-01-04T11:05:40.423Z,103448.92
2019-01-04T11:08:12.625Z,103449.87
2019-01-04T11:10:42.951Z,103443.58
2019-01-04T11:13:14.251Z,103427.18
2019-01-04T11:15:44.579Z,103427.18
2019-01-04T11:18:18.384Z,103428.82
2019-01-04T11:20:53.155Z,103430.48
2019-01-04T11:24:02.977Z,103423.67
2019-01-04T11:26:46.682Z,103420.78
2019-01-04T11:29:59.375Z,103420.78
2019-01-04T11:32:57.087Z,103428.94
2019-01-04T11:36:14.817Z,103424.52
2019-01-04T11:39:30.969Z,103430.92
2019-01-04T11:42:29.359Z,103427.11
2019-01-04T11:45:21.967Z,103429.16
2019-01-04T11:48:13.555Z,103430.33
2019-01-04T11:51:13.254Z,103423.19
2019-01-04T11:53:44.115Z,103433.94
2019-01-04T11:56:14.568Z,103423.25
2019-01-04T11:58:46.908Z,103406.92
2019-01-04T12:01:17.214Z,103406.92
2019-01-04T12:04:02.104Z,103414.36
2019-01-04T12:06:33.547Z,103402.69
2019-01-04T12:09:05.668Z,103392.72
2019-01-04T12:11:36.337Z,103382.16
2019-01-04T12:14:06.976Z,103375.98
2019-01-04T12:16:37.412Z,103367.70
2019-01-04T12:19:08.076Z,103360.36
2019-01-04T12:21:38.699Z,103358.56
2019-01-04T12:24:11.594Z,103357.95
2019-01-04T12:26:43.279Z,103354.22
2019-01-04T12:29:14.847Z,103374.14
2019-01-04T12:31:46.395Z,103378.22
2019-01-04T12:34:19.788Z,103386.73
2019-01-04T12:36:50.179Z,103382.80
2019-01-04T12:39:26.420Z,103382.71
2019-01-04T12:41:56.761Z,103382.21
2019-01-04T12:44:32.914Z,103377.27
2019-01-04T12:47:03.288Z,103373.33
2019-01-04T12:49:37.785Z,103367.88
2019-01-04T12:52:08.404Z,103360.62
2019-01-04T12:54:38.915Z,103363.46
2019-01-04T12:57:09.364Z,103360.15
2019-01-04T12:59:40.349Z,103349.20
2019-01-04T13:02:15.911Z,103342.98
2019-01-04T13:04:47.136Z,103341.00
2019-01-04T13:07:17.442Z,103342.34
2019-01-04T13:09:50.176Z,103340.34
2019-01-04T13:12:20.518Z,103339.57
2019-01-04T13:14:53.753Z,103358.53
2019-01-04T13:17:24.156Z,103346.74
2019-01-04T13:20:00.600Z,103348.62
2019-01-04T13:22:31.420Z,103342.03
2019-01-04T13:25:03.590Z,103336.66
2019-01-04T13:27:35.861Z,103332.72
2019-01-04T13:30:20.917Z,103328.67
2019-01-04T13:32:51.193Z,103328.55
2019-01-04T13:35:21.851Z,103331.83
2019-01-04T13:37:52.512Z,103332.36
2019-01-04T13:40:27.422Z,103326.01
2019-01-04T13:42:57.914Z,103313.52
2019-01-04T13:45:37.319Z,103318.59
2019-01-04T13:48:07.502Z,103323.99
2019-01-04T13:50:40.791Z,103314.08
2019-01-04T13:53:12.835Z,103317.52
2019-01-04T13:55:43.544Z,103307.07
2019-01-04T13:58:13.953Z,103320.08
2019-01-04T14:00:44.372Z,103327.16
2019-01-04T14:03:14.692Z,103319.91
2019-01-04T14:05:45.340Z,103299.84
2019-01-04T14:08:18.033Z,103298.70
2019-01-04T14:10:50.073Z,103300.43
2019-01-04T14:13:20.395Z,103291.55
2019-01-04T14:15:50.837Z,103296.99
2019-01-04T14:18:22.898Z,103300.27
2019-01-04T14:20:57.373Z,103301.70
2019-01-04T14:23:28.886Z,103304.98
2019-01-04T14:25:59.559Z,103306.91
2019-01-04T14:28:33.728Z,103299.00
2019-01-04T14:31:04.124Z,103299.61
2019-01-04T14:33:34.522Z,103290.96
2019-01-04T14:36:04.879Z,103290.83
2019-01-04T14:38:35.364Z,103291.70
2019-01-04T14:41:05.815Z,103290.98
2019-01-04T14:43:36.586Z,103290.08
2019-01-04T14:46:09.344Z,103292.91
2019-01-04T14:48:42.259Z,103287.84
2019-01-04T14:51:12.713Z,103285.30
2019-01-04T14:53:43.197Z,103282.47
2019-01-04T14:56:14.353Z,103294.25
2019-01-04T14:58:46.098Z,103287.05
2019-01-04T15:01:20.216Z,103283.23
2019-01-04T15:03:50.917Z,103279.43
2019-01-04T15:06:24.631Z,103282.47
2019-01-04T15:08:55.197Z,103275.62
2019-01-04T15:11:28.016Z,103276.60
2019-01-04T15:14:00.342Z,103284.21
2019-01-04T15:16:33.920Z,103283.44
2019-01-04T15:19:04.399Z,103287.36
2019-01-04T15:21:38.996Z,103305.69
2019-01-04T15:24:09.526Z,103303.39
2019-01-04T15:26:42.212Z,103298.68
2019-01-04T15:29:12.790Z,103283.09
2019-01-04T15:31:43.156Z,103285.09
2019-01-04T15:34:13.534Z,103291.44
2019-01-04T15:36:48.981Z,103278.38
2019-01-04T15:39:20.708Z,103283.83
2019-01-04T15:41:51.285Z,103288.41
2019-01-04T15:44:21.713Z,103287.13
2019-01-04T15:46:52.032Z,103282.80
2019-01-04T15:49:22.536Z,103289.91
2019-01-04T15:51:53.198Z,103297.72
2019-01-04T15:54:24.833Z,103300.26
2019-01-04T15:56:55.662Z,103291.91
2019-01-04T15:59:32.091Z,103281.77
2019-01-04T16:02:02.023Z,103267.28
2019-01-04T16:04:32.474Z,103261.91
2019-01-04T16:07:05.918Z,103274.83
2019-01-04T16:09:36.785Z,103261.31
2019-01-04T16:12:27.658Z,103261.31
2019-01-04T16:14:39.618Z,103269.16
2019-01-04T16:17:12.225Z,103271.64
2019-01-04T16:19:42.150Z,103285.83
2019-01-04T16:22:17.074Z,103284.76
2019-01-04T16:24:44.935Z,103282.22
2019-01-04T16:27:15.916Z,103276.12
2019-01-04T16:29:46.447Z,103266.64
2019-01-04T16:32:19.867Z,103266.14
2019-01-04T16:34:51.658Z,103260.91
2019-01-04T16:37:22.227Z,103260.91
2019-01-04T16:39:55.822Z,103257.63
2019-01-04T16:42:26.382Z,103248.45
2019-01-04T16:44:58.502Z,103247.86
2019-01-04T16:47:30.152Z,103230.47
2019-01-04T16:50:00.653Z,103215.02
2019-01-04T16:52:31.610Z,103226.30
2019-01-04T16:55:02.015Z,103225.88
2019-01-04T16:57:32.556Z,103218.27
2019-01-04T17:00:02.871Z,103231.15
2019-01-04T17:02:34.605Z,103221.38
2019-01-04T17:05:05.247Z,103221.17
2019-01-04T17:07:37.817Z,103217.50
2019-01-04T17:10:09.283Z,103217.00
2019-01-04T17:12:39.986Z,103214.59
2019-01-04T17:15:10.379Z,103201.31
2019-01-04T17:17:41.091Z,103222.57
2019-01-04T17:20:11.500Z,103219.00
2019-01-04T17:22:43.233Z,103220.51
2019-01-04T17:25:17.514Z,103203.73
2019-01-04T17:27:47.996Z,103217.38
2019-01-04T17:30:19.701Z,103213.34
2019-01-04T17:33:02.066Z,103202.30
2019-01-04T17:35:29.378Z,103193.30
2019-01-04T17:38:04.171Z,103182.39
2019-01-04T17:40:34.765Z,103193.80
2019-01-04T17:43:05.468Z,103179.78
2019-01-04T17:45:35.869Z,103178.58
2019-01-04T17:48:09.059Z,103170.48
2019-01-04T17:50:39.563Z,103176.28
2019-01-04T17:53:10.869Z,103178.09
2019-01-04T17:55:41.327Z,103182.63
2019-01-04T17:58:11.948Z,103188.96
2019-01-04T18:00:45.147Z,103186.95
2019-01-04T18:03:15.685Z,103184.72
2019-01-04T18:05:48.426Z,103171.80
2019-01-04T18:08:18.824Z,103171.80
2019-01-04T18:10:49.517Z,103182.48
2019-01-04T18:13:19.970Z,103177.91
2019-01-04T18:15:52.793Z,103181.21
2019-01-04T18:18:23.430Z,103178.27
2019-01-04T18:21:00.196Z,103188.21
2019-01-04T18:23:30.841Z,103187.68
2019-01-04T18:26:01.697Z,103186.78
2019-01-04T18:28:33.048Z,103186.78
2019-01-04T18:31:08.507Z,103187.25
2019-01-04T18:33:39.419Z,103196.63
2019-01-04T18:36:12.602Z,103197.09
2019-01-04T18:38:43.280Z,103199.39
2019-01-04T18:41:17.719Z,103197.89
2019-01-04T18:43:48.039Z,103191.55
2019-01-04T18:46:19.722Z,103200.06
2019-01-04T18:48:50.096Z,103196.42
2019-01-04T18:51:20.759Z,103203.26
2019-01-04T18:53:55.658Z,103208.41
2019-01-04T18:56:26.075Z,103210.36
2019-01-04T18:58:58.225Z,103211.63
2019-01-04T19:01:30.605Z,103212.00
2019-01-04T19:04:07.945Z,103209.97
2019-01-04T19:06:38.550Z,103205.50
2019-01-04T19:09:09.594Z,103211.40
2019-01-04T19:11:39.900Z,103212.91
2019-01-04T19:14:10.557Z,103204.69
2019-01-04T19:16:42.149Z,103202.28
2019-01-04T19:19:12.790Z,103206.33
2019-01-04T19:21:43.236Z,103203.26
2019-01-04T19:24:15.381Z,103209.59
2019-01-04T19:26:45.751Z,103210.36
2019-01-04T19:29:18.957Z,103209.59
2019-01-04T19:31:49.310Z,103202.89
2019-01-04T19:34:19.708Z,103207.06
2019-01-04T19:36:50.209Z,103205.50
2019-01-04T19:39:22.202Z,103201.49
2019-01-04T19:41:52.633Z,103200.42
2019-01-04T19:44:23.886Z,103201.09
2019-01-04T19:46:54.275Z,103198.42
2019-01-04T19:49:25.481Z,103203.63
2019-01-04T19:51:55.860Z,103209.59
2019-01-04T19:54:26.707Z,103204.53
2019-01-04T19:56:57.117Z,103192.14
2019-01-04T19:59:30.677Z,103195.05
2019-01-04T20:02:01.008Z,103189.31
2019-01-04T20:04:32.817Z,103201.78
2019-01-04T20:08:09.728Z,103193.65
2019-01-04T20:11:51.865Z,103191.11
2019-01-04T20:15:45.438Z,103184.24
2019-01-04T20:18:39.626Z,103191.11
2019-01-04T20:21:37.097Z,103188.58
2019-01-04T20:24:42.202Z,103177.53
2019-01-04T20:27:46.580Z,103179.17
2019-01-04T20:30:38.501Z,103173.89
2019-01-04T20:33:26.674Z,103173.13
2019-01-04T20:36:19.877Z,103172.89
2019-01-04T20:39:11.980Z,103178.13
2019-01-04T20:42:16.845Z,103177.22
2019-01-04T20:45:21.423Z,103183.33
2019-01-04T20:48:20.027Z,103186.92
2019-01-04T20:51:09.746Z,103183.78
2019-01-04T20:54:05.235Z,103186.45
2019-01-04T20:57:05.907Z,103185.71
2019-01-04T21:00:11.140Z,103180.11
2019-01-04T21:03:03.499Z,103180.77
2019-01-04T21:05:48.170Z,103168.98
2019-01-04T21:08:59.011Z,103170.71
2019-01-04T21:11:46.227Z,103170.71
2019-01-04T21:14:34.196Z,103177.78
2019-01-04T21:17:43.018Z,103175.01
2019-01-04T21:20:30.631Z,103168.30
2019-01-04T21:23:26.017Z,103168.83
2019-01-04T21:26:14.522Z,103165.31
2019-01-04T21:29:05.101Z,103166.88
2019-01-04T21:32:03.557Z,103166.77
2019-01-04T21:34:51.342Z,103161.85
2019-01-04T21:37:54.414Z,103164.59
2019-01-04T21:40:43.970Z,103155.59
2019-01-04T21:43:51.819Z,103160.79
2019-01-04T21:46:41.097Z,103158.78
2019-01-04T21:49:33.208Z,103147.38
2019-01-04T21:52:16.341Z,103147.12
2019-01-04T21:55:23.807Z,103142.75
2019-01-04T21:58:23.035Z,103138.04
2019-01-04T22:01:24.760Z,103145.66
2019-01-04T22:04:32.260Z,103147.41
2019-01-04T22:07:20.596Z,103140.34
2019-01-04T22:10:08.774Z,103132.19
2019-01-04T22:13:01.374Z,103131.83
2019-01-04T22:16:09.498Z,103130.72
2019-01-04T22:18:58.095Z,103130.19
2019-01-04T22:21:50.216Z,103131.73
2019-01-04T22:24:40.374Z,103131.73
2019-01-04T22:27:48.309Z,103129.73
2019-01-04T22:30:35.445Z,103123.89
2019-01-04T22:33:32.320Z,103118.60
2019-01-04T22:36:30.966Z,103121.39
2019-01-04T22:39:35.651Z,103110.78
2019-01-04T22:42:23.814Z,103104.44
2019-01-04T22:45:16.207Z,103103.45
2019-01-04T22:48:14.961Z,103097.92
2019-01-04T22:51:19.816Z,103095.14
2019-01-04T22:54:08.396Z,103105.70
2019-01-04T22:56:57.591Z,103103.81
2019-01-04T22:59:49.989Z,103099.02
2019-01-04T23:02:48.356Z,103093.73
2019-01-04T23:05:44.224Z,103083.82
2019-01-04T23:08:45.475Z,103096.30
2019-01-04T23:11:54.304Z,103095.16
2019-01-04T23:14:48.463Z,103099.61
2019-01-04T23:17:29.921Z,103095.06
2019-01-04T23:20:31.795Z,103084.16
2019-01-04T23:23:27.752Z,103086.98
2019-01-04T23:26:23.311Z,103089.80
2019-01-04T23:29:22.932Z,103089.40
2019-01-04T23:32:15.212Z,103088.78
2019-01-04T23:35:03.537Z,103067.69
2019-01-04T23:37:55.480Z,103067.69
2019-01-04T23:40:43.464Z,103079.77
2019-01-04T23:43:50.822Z,103076.86
2019-01-04T23:46:47.652Z,103076.48
2019-01-04T23:49:40.109Z,103059.57
2019-01-04T23:52:31.013Z,103060.84
2019-01-04T23:55:29.804Z,103063.79
2019-01-04T23:58:35.594Z,103057.44
